createdAt,value
2017-10-26T00:00:00.510Z,12.15
2017-10-26T00:00:04.672Z,12.15
2017-10-26T00:00:08.760Z,12.16
2017-10-26T00:00:13.132Z,12.19
2017-10-26T00:00:17.230Z,12.19
2017-10-26T00:00:21.569Z,12.12
2017-10-26T00:00:25.516Z,12.16
2017-10-26T00:00:29.737Z,12.16
2017-10-26T00:00:33.689Z,12.15
2017-10-26T00:00:37.642Z,12.13
2017-10-26T00:00:41.989Z,12.12
2017-10-26T00:00:45.936Z,12.19
2017-10-26T00:00:49.754Z,12.19
2017-10-26T00:00:53.844Z,12.13
2017-10-26T00:00:58.073Z,12.16
2017-10-26T00:01:02.453Z,12.18
2017-10-26T00:01:06.404Z,12.19
2017-10-26T00:01:10.888Z,12.16
2017-10-26T00:01:15.233Z,12.16
2017-10-26T00:01:19.582Z,12.12
2017-10-26T00:01:23.677Z,12.13
2017-10-26T00:01:28.011Z,12.15
2017-10-26T00:01:31.831Z,12.15
2017-10-26T00:01:35.919Z,12.16
2017-10-26T00:01:39.868Z,12.16
2017-10-26T00:01:43.821Z,12.15
2017-10-26T00:01:47.902Z,12.12
2017-10-26T00:01:51.720Z,12.13
2017-10-26T00:01:56.072Z,12.15
2017-10-26T00:02:00.020Z,12.15
2017-10-26T00:02:04.382Z,12.21
2017-10-26T00:02:08.467Z,12.15
2017-10-26T00:02:12.683Z,12.12
2017-10-26T00:02:17.166Z,12.21
2017-10-26T00:02:21.244Z,12.12
2017-10-26T00:02:25.462Z,12.16
2017-10-26T00:02:29.675Z,12.18
2017-10-26T00:02:33.883Z,12.18
2017-10-26T00:02:38.239Z,12.15
2017-10-26T00:02:42.455Z,12.11
2017-10-26T00:02:46.666Z,12.16
2017-10-26T00:02:50.619Z,12.13
2017-10-26T00:02:54.980Z,12.18
2017-10-26T00:02:59.191Z,12.15
2017-10-26T00:03:03.351Z,12.15
2017-10-26T00:03:07.436Z,12.15
2017-10-26T00:03:11.780Z,12.12
2017-10-26T00:03:15.991Z,12.15
2017-10-26T00:03:20.224Z,12.16
2017-10-26T00:03:24.315Z,12.16
2017-10-26T00:03:28.399Z,12.11
2017-10-26T00:03:32.476Z,12.18
2017-10-26T00:03:36.708Z,12.16
2017-10-26T00:03:40.659Z,12.12
2017-10-26T00:03:44.742Z,12.13
2017-10-26T00:03:49.229Z,12.16
2017-10-26T00:03:53.438Z,12.18
2017-10-26T00:03:57.513Z,12.08
2017-10-26T00:04:01.872Z,12.13
2017-10-26T00:04:06.268Z,12.15
2017-10-26T00:04:10.217Z,12.15
2017-10-26T00:04:14.440Z,12.16
2017-10-26T00:04:18.646Z,12.15
2017-10-26T00:04:22.603Z,12.15
2017-10-26T00:04:26.840Z,12.15
2017-10-26T00:04:31.095Z,12.12
2017-10-26T00:04:35.300Z,12.16
2017-10-26T00:04:39.255Z,12.13
2017-10-26T00:04:43.209Z,12.11
2017-10-26T00:04:47.288Z,12.15
2017-10-26T00:04:51.652Z,12.15
2017-10-26T00:04:55.598Z,12.16
2017-10-26T00:04:59.943Z,12.13
2017-10-26T00:05:04.304Z,12.16
2017-10-26T00:05:08.265Z,12.16
2017-10-26T00:05:12.219Z,12.16
2017-10-26T00:05:16.165Z,12.21
2017-10-26T00:05:20.253Z,12.16
2017-10-26T00:05:24.214Z,12.12
2017-10-26T00:05:28.294Z,12.18
2017-10-26T00:05:32.521Z,12.11
2017-10-26T00:05:36.785Z,12.18
2017-10-26T00:05:41.130Z,12.12
2017-10-26T00:05:45.216Z,12.12
2017-10-26T00:05:49.036Z,12.15
2017-10-26T00:05:53.247Z,12.21
2017-10-26T00:05:57.326Z,12.18
2017-10-26T00:06:01.280Z,12.15
2017-10-26T00:06:05.477Z,12.18
2017-10-26T00:06:09.562Z,12.13
2017-10-26T00:06:14.047Z,12.16
2017-10-26T00:06:18.526Z,12.22
2017-10-26T00:06:22.611Z,12.21
2017-10-26T00:06:27.088Z,12.26
2017-10-26T00:06:31.167Z,12.16
2017-10-26T00:06:35.260Z,12.26
2017-10-26T00:06:39.349Z,12.16
2017-10-26T00:06:43.574Z,12.19
2017-10-26T00:06:48.059Z,12.18
2017-10-26T00:06:52.541Z,12.18
2017-10-26T00:06:56.494Z,12.23
2017-10-26T00:07:00.704Z,12.22
2017-10-26T00:07:04.794Z,12.22
2017-10-26T00:07:08.740Z,12.16
2017-10-26T00:07:12.703Z,12.18
2017-10-26T00:07:16.790Z,12.21
2017-10-26T00:07:20.998Z,12.18
2017-10-26T00:07:25.343Z,12.26
2017-10-26T00:07:29.551Z,12.19
2017-10-26T00:07:33.898Z,12.22
2017-10-26T00:07:38.104Z,12.29
2017-10-26T00:07:42.451Z,12.26
2017-10-26T00:07:46.665Z,12.18
2017-10-26T00:07:50.752Z,12.19
2017-10-26T00:07:54.703Z,12.22
2017-10-26T00:07:58.653Z,12.22
2017-10-26T00:08:02.867Z,12.21
2017-10-26T00:08:07.356Z,12.25
2017-10-26T00:08:11.718Z,12.25
2017-10-26T00:08:15.930Z,12.23
2017-10-26T00:08:20.138Z,12.19
2017-10-26T00:08:24.359Z,12.16
2017-10-26T00:08:28.318Z,12.21
2017-10-26T00:08:32.273Z,12.21
2017-10-26T00:08:36.105Z,12.21
2017-10-26T00:08:40.200Z,12.22
2017-10-26T00:08:44.153Z,12.29
2017-10-26T00:08:47.976Z,12.21
2017-10-26T00:08:52.339Z,12.19
2017-10-26T00:08:56.579Z,12.22
2017-10-26T00:09:00.787Z,12.16
2017-10-26T00:09:04.870Z,12.16
2017-10-26T00:09:08.947Z,12.22
2017-10-26T00:09:12.895Z,12.25
2017-10-26T00:09:16.846Z,12.19
2017-10-26T00:09:20.943Z,12.23
2017-10-26T00:09:25.019Z,12.29
2017-10-26T00:09:28.963Z,12.21
2017-10-26T00:09:33.334Z,12.16
2017-10-26T00:09:37.290Z,12.19
2017-10-26T00:09:41.510Z,12.23
2017-10-26T00:09:45.876Z,12.22
2017-10-26T00:09:49.985Z,12.22
2017-10-26T00:09:54.207Z,12.23
2017-10-26T00:09:58.168Z,12.22
2017-10-26T00:10:02.560Z,12.29
2017-10-26T00:10:06.768Z,12.25
2017-10-26T00:10:10.854Z,12.16
2017-10-26T00:10:15.200Z,12.26
2017-10-26T00:10:19.544Z,12.26
2017-10-26T00:10:23.755Z,12.22
2017-10-26T00:10:27.832Z,12.25
2017-10-26T00:10:32.064Z,12.18
2017-10-26T00:10:36.152Z,12.22
2017-10-26T00:10:40.360Z,12.26
2017-10-26T00:10:44.311Z,12.22
2017-10-26T00:10:48.663Z,12.3
2017-10-26T00:10:53.009Z,12.22
2017-10-26T00:10:57.237Z,12.19
2017-10-26T00:11:01.763Z,12.22
2017-10-26T00:11:05.843Z,12.21
2017-10-26T00:11:09.932Z,12.18
2017-10-26T00:11:14.173Z,12.23
2017-10-26T00:11:18.512Z,12.29
2017-10-26T00:11:22.865Z,12.19
2017-10-26T00:11:26.974Z,12.18
2017-10-26T00:11:31.188Z,12.25
2017-10-26T00:11:35.409Z,12.19
2017-10-26T00:11:39.900Z,12.19
2017-10-26T00:11:43.846Z,12.26
2017-10-26T00:11:47.935Z,12.22
2017-10-26T00:11:52.280Z,12.21
2017-10-26T00:11:56.363Z,12.33
2017-10-26T00:12:00.443Z,12.25
2017-10-26T00:12:04.936Z,12.33
2017-10-26T00:12:09.018Z,12.26
2017-10-26T00:12:12.967Z,12.26
2017-10-26T00:12:17.348Z,12.37
2017-10-26T00:12:21.546Z,12.33
2017-10-26T00:12:25.895Z,12.26
2017-10-26T00:12:29.712Z,12.34
2017-10-26T00:12:33.795Z,12.3
2017-10-26T00:12:37.866Z,12.29
2017-10-26T00:12:42.080Z,12.29
2017-10-26T00:12:46.038Z,12.37
2017-10-26T00:12:50.370Z,12.37
2017-10-26T00:12:54.580Z,12.31
2017-10-26T00:12:58.929Z,12.36
2017-10-26T00:13:03.279Z,12.29
2017-10-26T00:13:07.369Z,12.33
2017-10-26T00:13:11.585Z,12.31
2017-10-26T00:13:15.531Z,12.3
2017-10-26T00:13:19.619Z,12.25
2017-10-26T00:13:23.575Z,12.29
2017-10-26T00:13:27.806Z,12.34
2017-10-26T00:13:31.893Z,12.33
2017-10-26T00:13:35.839Z,12.33
2017-10-26T00:13:40.050Z,12.25
2017-10-26T00:13:44.007Z,12.31
2017-10-26T00:13:48.090Z,12.34
2017-10-26T00:13:52.444Z,12.31
2017-10-26T00:13:56.653Z,12.36
2017-10-26T00:14:00.740Z,12.31
2017-10-26T00:14:04.964Z,12.29
2017-10-26T00:14:08.791Z,12.36
2017-10-26T00:14:13.135Z,12.38
2017-10-26T00:14:17.500Z,12.36
2017-10-26T00:14:21.583Z,12.3
2017-10-26T00:14:25.788Z,12.36
2017-10-26T00:14:29.476Z,12.38
2017-10-26T00:14:33.692Z,12.36
2017-10-26T00:14:37.777Z,12.38
2017-10-26T00:14:41.861Z,12.36
2017-10-26T00:14:46.208Z,12.37
2017-10-26T00:14:50.164Z,12.36
2017-10-26T00:14:54.255Z,12.36
2017-10-26T00:14:58.466Z,12.36
2017-10-26T00:15:02.681Z,12.36
2017-10-26T00:15:07.032Z,12.36
2017-10-26T00:15:10.865Z,12.41
2017-10-26T00:15:15.208Z,12.38
2017-10-26T00:15:19.429Z,12.38
2017-10-26T00:15:23.644Z,12.37
2017-10-26T00:15:27.587Z,12.43
2017-10-26T00:15:31.532Z,12.36
2017-10-26T00:15:35.621Z,12.46
2017-10-26T00:15:39.838Z,12.43
2017-10-26T00:15:44.310Z,12.41
2017-10-26T00:15:48.388Z,12.4
2017-10-26T00:15:52.601Z,12.38
2017-10-26T00:15:56.817Z,12.46
2017-10-26T00:16:00.894Z,12.3
2017-10-26T00:16:04.844Z,12.34
2017-10-26T00:16:08.666Z,12.4
2017-10-26T00:16:12.744Z,12.33
2017-10-26T00:16:16.831Z,12.4
2017-10-26T00:16:21.054Z,12.34
2017-10-26T00:16:25.406Z,12.46
2017-10-26T00:16:29.752Z,12.34
2017-10-26T00:16:33.832Z,12.37
2017-10-26T00:16:37.908Z,12.44
2017-10-26T00:16:42.390Z,12.48
2017-10-26T00:16:46.872Z,12.46
2017-10-26T00:16:50.958Z,12.43
2017-10-26T00:16:55.044Z,12.44
2017-10-26T00:16:59.127Z,12.46
2017-10-26T00:17:03.368Z,12.44
2017-10-26T00:17:07.454Z,12.46
2017-10-26T00:17:11.670Z,12.48
2017-10-26T00:17:15.486Z,12.48
2017-10-26T00:17:19.711Z,12.48
2017-10-26T00:17:23.797Z,12.48
2017-10-26T00:17:27.888Z,12.52
2017-10-26T00:17:31.969Z,12.48
2017-10-26T00:17:35.787Z,12.49
2017-10-26T00:17:40.272Z,12.46
2017-10-26T00:17:44.353Z,12.48
2017-10-26T00:17:48.564Z,12.55
2017-10-26T00:17:52.642Z,12.48
2017-10-26T00:17:56.725Z,12.48
2017-10-26T00:18:01.070Z,12.54
2017-10-26T00:18:05.410Z,12.51
2017-10-26T00:18:09.505Z,12.48
2017-10-26T00:18:13.587Z,12.51
2017-10-26T00:18:17.535Z,12.56
2017-10-26T00:18:21.625Z,12.52
2017-10-26T00:18:25.703Z,12.59
2017-10-26T00:18:29.919Z,12.58
2017-10-26T00:18:34.267Z,12.58
2017-10-26T00:18:38.470Z,12.54
2017-10-26T00:18:42.550Z,12.55
2017-10-26T00:18:46.374Z,12.52
2017-10-26T00:18:50.055Z,12.55
2017-10-26T00:18:54.139Z,12.59
2017-10-26T00:18:58.346Z,12.51
2017-10-26T00:19:02.613Z,12.52
2017-10-26T00:19:06.962Z,12.58
2017-10-26T00:19:10.919Z,12.52
2017-10-26T00:19:15.001Z,12.58
2017-10-26T00:19:19.214Z,12.59
2017-10-26T00:19:23.431Z,12.52
2017-10-26T00:19:27.790Z,12.52
2017-10-26T00:19:31.995Z,12.58
2017-10-26T00:19:36.073Z,12.52
2017-10-26T00:19:40.287Z,12.58
2017-10-26T00:19:44.245Z,12.56
2017-10-26T00:19:48.455Z,12.49
2017-10-26T00:19:52.665Z,12.55
2017-10-26T00:19:57.019Z,12.54
2017-10-26T00:20:01.096Z,12.59
2017-10-26T00:20:05.330Z,12.58
2017-10-26T00:20:09.552Z,12.55
2017-10-26T00:20:13.889Z,12.56
2017-10-26T00:20:17.970Z,12.69
2017-10-26T00:20:22.055Z,12.61
2017-10-26T00:20:26.000Z,12.59
2017-10-26T00:20:30.226Z,12.58
2017-10-26T00:20:34.469Z,12.58
2017-10-26T00:20:38.292Z,12.61
2017-10-26T00:20:42.368Z,12.66
2017-10-26T00:20:46.449Z,12.7
2017-10-26T00:20:50.394Z,12.61
2017-10-26T00:20:54.719Z,12.66
2017-10-26T00:20:58.804Z,12.61
2017-10-26T00:21:02.754Z,12.66
2017-10-26T00:21:06.841Z,12.62
2017-10-26T00:21:10.788Z,12.7
2017-10-26T00:21:15.003Z,12.62
2017-10-26T00:21:18.819Z,12.63
2017-10-26T00:21:22.911Z,12.67
2017-10-26T00:21:26.995Z,12.63
2017-10-26T00:21:31.082Z,12.67
2017-10-26T00:21:35.158Z,12.67
2017-10-26T00:21:39.237Z,12.63
2017-10-26T00:21:43.449Z,12.63
2017-10-26T00:21:47.789Z,12.71
2017-10-26T00:21:51.760Z,12.7
2017-10-26T00:21:55.713Z,12.62
2017-10-26T00:21:59.663Z,12.61
2017-10-26T00:22:04.038Z,12.67
2017-10-26T00:22:08.253Z,12.61
2017-10-26T00:22:12.194Z,12.66
2017-10-26T00:22:16.413Z,12.63
2017-10-26T00:22:20.614Z,12.71
2017-10-26T00:22:24.959Z,12.59
2017-10-26T00:22:28.909Z,12.69
2017-10-26T00:22:32.867Z,12.62
2017-10-26T00:22:37.077Z,12.77
2017-10-26T00:22:41.162Z,12.69
2017-10-26T00:22:45.244Z,12.73
2017-10-26T00:22:49.185Z,12.67
2017-10-26T00:22:53.133Z,12.7
2017-10-26T00:22:57.213Z,12.71
2017-10-26T00:23:01.167Z,12.8
2017-10-26T00:23:05.488Z,12.73
2017-10-26T00:23:09.707Z,12.74
2017-10-26T00:23:14.054Z,12.71
2017-10-26T00:23:18.133Z,12.73
2017-10-26T00:23:22.216Z,12.71
2017-10-26T00:23:26.299Z,12.71
2017-10-26T00:23:30.376Z,12.73
2017-10-26T00:23:34.194Z,12.74
2017-10-26T00:23:38.013Z,12.84
2017-10-26T00:23:42.359Z,12.74
2017-10-26T00:23:46.436Z,12.73
2017-10-26T00:23:50.388Z,12.81
2017-10-26T00:23:54.602Z,12.77
2017-10-26T00:23:58.682Z,12.84
2017-10-26T00:24:02.636Z,12.77
2017-10-26T00:24:06.987Z,12.76
2017-10-26T00:24:10.937Z,12.73
2017-10-26T00:24:15.145Z,12.74
2017-10-26T00:24:19.503Z,12.76
2017-10-26T00:24:23.714Z,12.79
2017-10-26T00:24:27.530Z,12.76
2017-10-26T00:24:31.746Z,12.79
2017-10-26T00:24:35.995Z,12.85
2017-10-26T00:24:40.071Z,12.81
2017-10-26T00:24:44.160Z,12.84
2017-10-26T00:24:48.242Z,12.85
2017-10-26T00:24:52.453Z,12.8
2017-10-26T00:24:56.671Z,12.81
2017-10-26T00:25:00.750Z,12.77
2017-10-26T00:25:05.140Z,12.81
2017-10-26T00:25:09.093Z,12.84
2017-10-26T00:25:13.169Z,12.85
2017-10-26T00:25:17.386Z,12.89
2017-10-26T00:25:21.602Z,12.85
2017-10-26T00:25:25.810Z,12.87
2017-10-26T00:25:30.020Z,12.88
2017-10-26T00:25:33.973Z,12.88
2017-10-26T00:25:37.794Z,12.84
2017-10-26T00:25:41.901Z,12.94
2017-10-26T00:25:45.842Z,12.87
2017-10-26T00:25:49.663Z,12.95
2017-10-26T00:25:53.486Z,12.89
2017-10-26T00:25:57.864Z,12.89
2017-10-26T00:26:01.941Z,12.92
2017-10-26T00:26:05.761Z,12.91
2017-10-26T00:26:09.985Z,12.91
2017-10-26T00:26:14.336Z,12.88
2017-10-26T00:26:18.684Z,12.92
2017-10-26T00:26:22.767Z,12.92
2017-10-26T00:26:26.717Z,12.89
2017-10-26T00:26:30.795Z,12.88
2017-10-26T00:26:35.022Z,12.92
2017-10-26T00:26:38.834Z,12.94
2017-10-26T00:26:42.803Z,12.88
2017-10-26T00:26:46.890Z,12.94
2017-10-26T00:26:50.842Z,12.89
2017-10-26T00:26:55.048Z,12.81
2017-10-26T00:26:59.005Z,12.95
2017-10-26T00:27:03.434Z,12.95
2017-10-26T00:27:07.655Z,12.95
2017-10-26T00:27:11.731Z,12.92
2017-10-26T00:27:15.812Z,12.95
2017-10-26T00:27:19.896Z,12.96
2017-10-26T00:27:23.986Z,12.99
2017-10-26T00:27:28.208Z,12.95
2017-10-26T00:27:32.159Z,13.03
2017-10-26T00:27:36.248Z,12.98
2017-10-26T00:27:40.334Z,12.99
2017-10-26T00:27:44.675Z,12.96
2017-10-26T00:27:48.636Z,13.01
2017-10-26T00:27:52.715Z,12.99
2017-10-26T00:27:57.062Z,12.96
2017-10-26T00:28:01.136Z,12.94
2017-10-26T00:28:05.081Z,12.95
2017-10-26T00:28:09.168Z,12.95
2017-10-26T00:28:13.505Z,12.96
2017-10-26T00:28:17.724Z,12.94
2017-10-26T00:28:21.967Z,12.98
2017-10-26T00:28:26.043Z,13.01
2017-10-26T00:28:29.995Z,12.96
2017-10-26T00:28:34.210Z,12.99
2017-10-26T00:28:38.158Z,13.01
2017-10-26T00:28:42.371Z,13.04
2017-10-26T00:28:46.727Z,12.98
2017-10-26T00:28:50.808Z,12.99
2017-10-26T00:28:54.757Z,12.98
2017-10-26T00:28:58.704Z,12.98
2017-10-26T00:29:02.818Z,12.95
2017-10-26T00:29:06.760Z,12.95
2017-10-26T00:29:10.707Z,13.1
2017-10-26T00:29:15.080Z,12.98
2017-10-26T00:29:19.036Z,13.06
2017-10-26T00:29:23.132Z,12.96
2017-10-26T00:29:27.218Z,13.1
2017-10-26T00:29:31.299Z,13.04
2017-10-26T00:29:35.512Z,13.03
2017-10-26T00:29:39.598Z,13.07
2017-10-26T00:29:43.678Z,13.06
2017-10-26T00:29:48.025Z,13.01
2017-10-26T00:29:52.118Z,13.03
2017-10-26T00:29:56.197Z,13.09
2017-10-26T00:30:00.403Z,13.01
2017-10-26T00:30:04.226Z,13.17
2017-10-26T00:30:08.345Z,13.04
2017-10-26T00:30:12.819Z,13.04
2017-10-26T00:30:17.299Z,13.12
2017-10-26T00:30:21.377Z,13.09
2017-10-26T00:30:25.336Z,13.09
2017-10-26T00:30:29.558Z,13.07
2017-10-26T00:30:34.075Z,13.14
2017-10-26T00:30:38.551Z,13.13
2017-10-26T00:30:42.764Z,13.1
2017-10-26T00:30:46.994Z,13.07
2017-10-26T00:30:51.216Z,13.1
2017-10-26T00:30:55.309Z,13.1
2017-10-26T00:30:59.265Z,13.1
2017-10-26T00:31:03.214Z,13.12
2017-10-26T00:31:07.169Z,13.06
2017-10-26T00:31:11.391Z,13.06
2017-10-26T00:31:15.600Z,13.09
2017-10-26T00:31:19.682Z,13.07
2017-10-26T00:31:23.497Z,13.12
2017-10-26T00:31:27.311Z,13.13
2017-10-26T00:31:31.402Z,13.09
2017-10-26T00:31:35.753Z,13.1
2017-10-26T00:31:39.705Z,13.12
2017-10-26T00:31:43.785Z,13.17
2017-10-26T00:31:48.002Z,13.14
2017-10-26T00:31:52.221Z,13.12
2017-10-26T00:31:56.302Z,13.14
2017-10-26T00:32:00.518Z,13.14
2017-10-26T00:32:04.934Z,13.17
2017-10-26T00:32:09.021Z,13.16
2017-10-26T00:32:13.373Z,13.14
2017-10-26T00:32:17.320Z,13.19
2017-10-26T00:32:21.538Z,13.12
2017-10-26T00:32:25.754Z,13.1
2017-10-26T00:32:29.702Z,13.09
2017-10-26T00:32:33.518Z,13.1
2017-10-26T00:32:37.744Z,13.14
2017-10-26T00:32:41.691Z,13.16
2017-10-26T00:32:45.768Z,13.1
2017-10-26T00:32:49.714Z,13.14
2017-10-26T00:32:53.799Z,13.17
2017-10-26T00:32:57.878Z,13.1
2017-10-26T00:33:01.960Z,13.13
2017-10-26T00:33:06.306Z,13.14
2017-10-26T00:33:10.254Z,13.19
2017-10-26T00:33:14.462Z,13.14
2017-10-26T00:33:18.670Z,13.14
2017-10-26T00:33:23.008Z,13.19
2017-10-26T00:33:27.217Z,13.12
2017-10-26T00:33:31.567Z,13.13
2017-10-26T00:33:35.782Z,13.17
2017-10-26T00:33:39.994Z,13.24
2017-10-26T00:33:44.079Z,13.06
2017-10-26T00:33:48.315Z,13.14
2017-10-26T00:33:52.261Z,13.1
2017-10-26T00:33:56.349Z,13.13
2017-10-26T00:34:00.297Z,13.07
2017-10-26T00:34:04.250Z,13.12
2017-10-26T00:34:08.215Z,13.14
2017-10-26T00:34:12.287Z,13.24
2017-10-26T00:34:16.768Z,13.21
2017-10-26T00:34:20.854Z,13.13
2017-10-26T00:34:25.095Z,13.16
2017-10-26T00:34:29.049Z,13.17
2017-10-26T00:34:33.399Z,13.28
2017-10-26T00:34:37.082Z,13.19
2017-10-26T00:34:41.053Z,13.28
2017-10-26T00:34:45.391Z,13.19
2017-10-26T00:34:49.474Z,13.17
2017-10-26T00:34:53.693Z,13.19
2017-10-26T00:34:57.378Z,13.24
2017-10-26T00:35:01.729Z,13.28
2017-10-26T00:35:05.996Z,13.19
2017-10-26T00:35:09.819Z,13.24
2017-10-26T00:35:14.168Z,13.24
2017-10-26T00:35:18.511Z,13.24
2017-10-26T00:35:22.599Z,13.14
2017-10-26T00:35:26.420Z,13.22
2017-10-26T00:35:30.374Z,13.24
2017-10-26T00:35:34.717Z,13.14
2017-10-26T00:35:38.924Z,13.21
2017-10-26T00:35:43.284Z,13.24
2017-10-26T00:35:47.512Z,13.14
2017-10-26T00:35:51.601Z,13.16
2017-10-26T00:35:55.817Z,13.19
2017-10-26T00:35:59.642Z,13.21
2017-10-26T00:36:04.112Z,13.17
2017-10-26T00:36:08.609Z,13.24
2017-10-26T00:36:12.821Z,13.24
2017-10-26T00:36:17.041Z,13.24
2017-10-26T00:36:21.121Z,13.27
2017-10-26T00:36:25.459Z,13.19
2017-10-26T00:36:29.796Z,13.24
2017-10-26T00:36:33.888Z,13.16
2017-10-26T00:36:37.702Z,13.25
2017-10-26T00:36:42.052Z,13.17
2017-10-26T00:36:46.257Z,13.19
2017-10-26T00:36:50.211Z,13.19
2017-10-26T00:36:54.420Z,13.21
2017-10-26T00:36:58.495Z,13.19
2017-10-26T00:37:03.232Z,13.17
2017-10-26T00:37:07.588Z,13.21
2017-10-26T00:37:11.536Z,13.19
2017-10-26T00:37:15.629Z,13.22
2017-10-26T00:37:19.976Z,13.17
2017-10-26T00:37:23.927Z,13.24
2017-10-26T00:37:28.018Z,13.28
2017-10-26T00:37:32.236Z,13.28
2017-10-26T00:37:36.575Z,13.24
2017-10-26T00:37:40.798Z,13.25
2017-10-26T00:37:45.153Z,13.19
2017-10-26T00:37:49.489Z,13.22
2017-10-26T00:37:53.564Z,13.27
2017-10-26T00:37:57.513Z,13.22
2017-10-26T00:38:01.473Z,13.13
2017-10-26T00:38:06.020Z,13.16
2017-10-26T00:38:09.984Z,13.25
2017-10-26T00:38:14.193Z,13.28
2017-10-26T00:38:18.272Z,13.25
2017-10-26T00:38:22.500Z,13.31
2017-10-26T00:38:26.978Z,13.24
2017-10-26T00:38:31.190Z,13.25
2017-10-26T00:38:35.412Z,13.24
2017-10-26T00:38:39.497Z,13.25
2017-10-26T00:38:43.705Z,13.17
2017-10-26T00:38:47.653Z,13.22
2017-10-26T00:38:52.000Z,13.25
2017-10-26T00:38:56.086Z,13.17
2017-10-26T00:39:00.320Z,13.28
2017-10-26T00:39:04.529Z,13.24
2017-10-26T00:39:08.754Z,13.28
2017-10-26T00:39:12.969Z,13.25
2017-10-26T00:39:17.456Z,13.21
2017-10-26T00:39:21.672Z,13.25
2017-10-26T00:39:25.753Z,13.27
2017-10-26T00:39:29.837Z,13.28
2017-10-26T00:39:33.920Z,13.28
2017-10-26T00:39:38.282Z,13.25
2017-10-26T00:39:42.215Z,13.29
2017-10-26T00:39:46.161Z,13.22
2017-10-26T00:39:50.375Z,13.24
2017-10-26T00:39:54.711Z,13.25
2017-10-26T00:39:58.801Z,13.22
2017-10-26T00:40:02.605Z,13.25
2017-10-26T00:40:06.685Z,13.29
2017-10-26T00:40:10.654Z,13.28
2017-10-26T00:40:14.880Z,13.21
2017-10-26T00:40:18.963Z,13.25
2017-10-26T00:40:23.309Z,13.25
2017-10-26T00:40:27.675Z,13.28
2017-10-26T00:40:32.043Z,13.28
2017-10-26T00:40:36.135Z,13.22
2017-10-26T00:40:39.958Z,13.27
2017-10-26T00:40:43.921Z,13.27
2017-10-26T00:40:48.001Z,13.27
2017-10-26T00:40:52.222Z,13.24
2017-10-26T00:40:56.301Z,13.27
2017-10-26T00:41:00.530Z,13.24
2017-10-26T00:41:04.477Z,13.27
2017-10-26T00:41:08.823Z,13.25
2017-10-26T00:41:12.905Z,13.28
2017-10-26T00:41:16.851Z,13.25
2017-10-26T00:41:20.979Z,13.27
2017-10-26T00:41:25.203Z,13.29
2017-10-26T00:41:29.414Z,13.24
2017-10-26T00:41:33.523Z,13.24
2017-10-26T00:41:37.712Z,13.28
2017-10-26T00:41:41.797Z,13.25
2017-10-26T00:41:45.479Z,13.24
2017-10-26T00:41:49.425Z,13.32
2017-10-26T00:41:53.374Z,13.25
2017-10-26T00:41:57.452Z,13.25
2017-10-26T00:42:01.674Z,13.22
2017-10-26T00:42:05.799Z,13.25
2017-10-26T00:42:10.136Z,13.22
2017-10-26T00:42:14.355Z,13.22
2017-10-26T00:42:18.561Z,13.29
2017-10-26T00:42:22.648Z,13.22
2017-10-26T00:42:26.603Z,13.28
2017-10-26T00:42:30.698Z,13.28
2017-10-26T00:42:34.914Z,13.25
2017-10-26T00:42:39.135Z,13.27
2017-10-26T00:42:43.094Z,13.32
2017-10-26T00:42:47.174Z,13.25
2017-10-26T00:42:51.392Z,13.35
2017-10-26T00:42:55.345Z,13.35
2017-10-26T00:42:59.430Z,13.29
2017-10-26T00:43:03.723Z,13.21
2017-10-26T00:43:07.541Z,13.27
2017-10-26T00:43:11.627Z,13.21
2017-10-26T00:43:15.711Z,13.27
2017-10-26T00:43:19.920Z,13.35
2017-10-26T00:43:23.999Z,13.31
2017-10-26T00:43:27.968Z,13.32
2017-10-26T00:43:32.059Z,13.38
2017-10-26T00:43:35.869Z,13.27
2017-10-26T00:43:40.236Z,13.31
2017-10-26T00:43:44.717Z,13.35
2017-10-26T00:43:48.799Z,13.32
2017-10-26T00:43:53.156Z,13.35
2017-10-26T00:43:57.235Z,13.28
2017-10-26T00:44:01.314Z,13.29
2017-10-26T00:44:05.392Z,13.25
2017-10-26T00:44:09.471Z,13.35
2017-10-26T00:44:13.687Z,13.35
2017-10-26T00:44:18.047Z,13.32
2017-10-26T00:44:22.121Z,13.35
2017-10-26T00:44:26.325Z,13.29
2017-10-26T00:44:30.418Z,13.28
2017-10-26T00:44:34.512Z,13.35
2017-10-26T00:44:38.599Z,13.36
2017-10-26T00:44:42.551Z,13.29
2017-10-26T00:44:46.762Z,13.38
2017-10-26T00:44:50.973Z,13.35
2017-10-26T00:44:55.064Z,13.32
2017-10-26T00:44:58.871Z,13.27
2017-10-26T00:45:03.156Z,13.29
2017-10-26T00:45:07.096Z,13.27
2017-10-26T00:45:11.307Z,13.38
2017-10-26T00:45:15.391Z,13.32
2017-10-26T00:45:19.468Z,13.35
2017-10-26T00:45:23.544Z,13.27
2017-10-26T00:45:27.753Z,13.29
2017-10-26T00:45:31.715Z,13.32
2017-10-26T00:45:35.809Z,13.32
2017-10-26T00:45:40.152Z,13.29
2017-10-26T00:45:44.490Z,13.41
2017-10-26T00:45:48.573Z,13.32
2017-10-26T00:45:53.055Z,13.28
2017-10-26T00:45:56.998Z,13.31
2017-10-26T00:46:00.964Z,13.35
2017-10-26T00:46:05.482Z,13.35
2017-10-26T00:46:09.174Z,13.32
2017-10-26T00:46:13.273Z,13.29
2017-10-26T00:46:17.071Z,13.31
2017-10-26T00:46:21.145Z,13.32
2017-10-26T00:46:25.235Z,13.29
2017-10-26T00:46:29.185Z,13.35
2017-10-26T00:46:33.395Z,13.35
2017-10-26T00:46:37.343Z,13.31
2017-10-26T00:46:41.424Z,13.32
2017-10-26T00:46:45.519Z,13.32
2017-10-26T00:46:49.597Z,13.36
2017-10-26T00:46:53.816Z,13.32
2017-10-26T00:46:58.025Z,13.35
2017-10-26T00:47:02.404Z,13.28
2017-10-26T00:47:06.625Z,13.31
2017-10-26T00:47:10.704Z,13.39
2017-10-26T00:47:14.653Z,13.31
2017-10-26T00:47:19.004Z,13.31
2017-10-26T00:47:23.213Z,13.35
2017-10-26T00:47:27.027Z,13.35
2017-10-26T00:47:31.124Z,13.38
2017-10-26T00:47:35.200Z,13.38
2017-10-26T00:47:39.404Z,13.35
2017-10-26T00:47:43.353Z,13.36
2017-10-26T00:47:47.565Z,13.38
2017-10-26T00:47:51.516Z,13.35
2017-10-26T00:47:55.476Z,13.35
2017-10-26T00:47:59.556Z,13.35
2017-10-26T00:48:03.688Z,13.38
2017-10-26T00:48:07.908Z,13.36
2017-10-26T00:48:12.118Z,13.35
2017-10-26T00:48:15.933Z,13.35
2017-10-26T00:48:19.756Z,13.38
2017-10-26T00:48:23.840Z,13.36
2017-10-26T00:48:28.177Z,13.39
2017-10-26T00:48:32.261Z,13.35
2017-10-26T00:48:36.344Z,13.35
2017-10-26T00:48:40.415Z,13.38
2017-10-26T00:48:44.500Z,13.39
2017-10-26T00:48:48.848Z,13.36
2017-10-26T00:48:52.797Z,13.32
2017-10-26T00:48:57.005Z,13.39
2017-10-26T00:49:00.951Z,13.38
2017-10-26T00:49:05.259Z,13.36
2017-10-26T00:49:09.078Z,13.39
2017-10-26T00:49:13.298Z,13.39
2017-10-26T00:49:17.379Z,13.43
2017-10-26T00:49:21.463Z,13.38
2017-10-26T00:49:25.549Z,13.38
2017-10-26T00:49:29.498Z,13.41
2017-10-26T00:49:33.830Z,13.39
2017-10-26T00:49:37.779Z,13.39
2017-10-26T00:49:42.142Z,13.31
2017-10-26T00:49:46.367Z,13.27
2017-10-26T00:49:50.443Z,13.36
2017-10-26T00:49:54.385Z,13.38
2017-10-26T00:49:58.458Z,13.39
2017-10-26T00:50:02.544Z,13.41
2017-10-26T00:50:06.501Z,13.28
2017-10-26T00:50:10.720Z,13.28
2017-10-26T00:50:14.927Z,13.35
2017-10-26T00:50:19.146Z,13.38
2017-10-26T00:50:23.096Z,13.48
2017-10-26T00:50:27.042Z,13.43
2017-10-26T00:50:30.997Z,13.38
2017-10-26T00:50:35.212Z,13.41
2017-10-26T00:50:39.415Z,13.32
2017-10-26T00:50:43.499Z,13.43
2017-10-26T00:50:47.449Z,13.38
2017-10-26T00:50:51.658Z,13.39
2017-10-26T00:50:55.474Z,13.44
2017-10-26T00:50:59.556Z,13.28
2017-10-26T00:51:03.741Z,13.28
2017-10-26T00:51:07.821Z,13.43
2017-10-26T00:51:11.903Z,13.41
2017-10-26T00:51:16.244Z,13.41
2017-10-26T00:51:20.329Z,13.43
2017-10-26T00:51:24.150Z,13.35
2017-10-26T00:51:28.495Z,13.32
2017-10-26T00:51:32.580Z,13.31
2017-10-26T00:51:36.654Z,13.31
2017-10-26T00:51:41.132Z,13.29
2017-10-26T00:51:45.349Z,13.44
2017-10-26T00:51:49.295Z,13.47
2017-10-26T00:51:53.376Z,13.44
2017-10-26T00:51:57.321Z,13.47
2017-10-26T00:52:01.398Z,13.41
2017-10-26T00:52:05.354Z,13.39
2017-10-26T00:52:09.827Z,13.43
2017-10-26T00:52:14.046Z,13.41
2017-10-26T00:52:17.731Z,13.44
2017-10-26T00:52:21.930Z,13.43
2017-10-26T00:52:26.420Z,13.39
2017-10-26T00:52:30.499Z,13.35
2017-10-26T00:52:34.447Z,13.38
2017-10-26T00:52:38.652Z,13.39
2017-10-26T00:52:43.137Z,13.41
2017-10-26T00:52:47.214Z,13.39
2017-10-26T00:52:51.295Z,13.38
2017-10-26T00:52:55.245Z,13.36
2017-10-26T00:52:59.461Z,13.36
2017-10-26T00:53:03.673Z,13.36
2017-10-26T00:53:07.889Z,13.41
2017-10-26T00:53:12.110Z,13.39
2017-10-26T00:53:16.332Z,13.39